createdAt,value
2023-01-23T00:01:35.682Z,96474.16
2023-01-23T00:04:03.967Z,96471.03
2023-01-23T00:06:32.071Z,96482.81
2023-01-23T00:09:01.606Z,96480.84
2023-01-23T00:11:30.964Z,96488.59
2023-01-23T00:14:00.598Z,96494.03
2023-01-23T00:16:30.908Z,96486.78
2023-01-23T00:18:59.681Z,96495.84
2023-01-23T00:21:30.370Z,96490.75
2023-01-23T00:24:01.416Z,96497.03
2023-01-23T00:26:32.779Z,96493.41
2023-01-23T00:29:01.024Z,96483.03
2023-01-23T00:31:30.470Z,96488.53
2023-01-23T00:33:59.911Z,96485.38
2023-01-23T00:36:30.541Z,96483.81
2023-01-23T00:38:58.489Z,96486.41
2023-01-23T00:41:26.788Z,96476.91
2023-01-23T00:43:55.872Z,96484.09
2023-01-23T00:46:23.836Z,96488.44
2023-01-23T00:48:52.162Z,96490.06
2023-01-23T00:51:20.407Z,96484.53
2023-01-23T00:53:49.970Z,96492.75
2023-01-23T00:56:17.703Z,96495.22
2023-01-23T00:58:45.495Z,96494.00
2023-01-23T01:01:15.124Z,96502.69
2023-01-23T01:03:43.674Z,96507.97
2023-01-23T01:06:11.692Z,96517.31
2023-01-23T01:08:40.077Z,96513.28
2023-01-23T01:11:08.307Z,96512.09
2023-01-23T01:13:36.574Z,96511.81
2023-01-23T01:16:04.996Z,96524.63
2023-01-23T01:18:34.412Z,96522.38
2023-01-23T01:21:02.410Z,96523.44
2023-01-23T01:23:34.896Z,96516.22
2023-01-23T01:26:03.203Z,96520.56
2023-01-23T01:28:33.082Z,96518.75
2023-01-23T01:31:06.832Z,96513.69
2023-01-23T01:33:36.521Z,96523.44
2023-01-23T01:36:04.795Z,96516.16
2023-01-23T01:38:32.556Z,96506.56
2023-01-23T01:41:00.523Z,96506.06
2023-01-23T01:43:30.218Z,96493.56
2023-01-23T01:46:20.436Z,96498.00
2023-01-23T01:49:06.032Z,96491.56
2023-01-23T01:51:36.518Z,96490.91
2023-01-23T01:54:10.484Z,96491.75
2023-01-23T01:56:44.635Z,96487.97
2023-01-23T01:59:13.195Z,96485.88
2023-01-23T02:01:42.564Z,96489.00
2023-01-23T02:04:12.183Z,96480.44
2023-01-23T02:06:40.096Z,96485.25
2023-01-23T02:09:16.162Z,96484.41
2023-01-23T02:11:44.435Z,96477.31
2023-01-23T02:14:16.192Z,96487.41
2023-01-23T02:16:51.085Z,96484.94
2023-01-23T02:19:35.585Z,96483.63
2023-01-23T02:22:14.325Z,96470.72
2023-01-23T02:24:49.186Z,96469.63
2023-01-23T02:27:18.211Z,96464.34
2023-01-23T02:29:48.331Z,96468.28
2023-01-23T02:32:16.060Z,96468.47
2023-01-23T02:34:44.185Z,96464.38
2023-01-23T02:37:12.320Z,96466.34
2023-01-23T02:39:43.488Z,96448.34
2023-01-23T02:42:11.350Z,96467.19
2023-01-23T02:44:43.185Z,96461.59
2023-01-23T02:47:12.473Z,96455.59
2023-01-23T02:49:40.525Z,96457.91
2023-01-23T02:52:09.643Z,96460.41
2023-01-23T02:54:37.549Z,96457.56
2023-01-23T02:57:05.378Z,96457.56
2023-01-23T02:59:50.565Z,96463.69
2023-01-23T03:02:22.539Z,96469.00
2023-01-23T03:04:50.275Z,96473.63
2023-01-23T03:07:18.153Z,96477.41
2023-01-23T03:09:47.738Z,96478.91
2023-01-23T03:12:15.760Z,96487.84
2023-01-23T03:14:43.526Z,96494.66
2023-01-23T03:17:11.239Z,96497.44
2023-01-23T03:19:40.296Z,96494.97
2023-01-23T03:22:08.063Z,96485.69
2023-01-23T03:24:36.467Z,96490.47
2023-01-23T03:27:04.295Z,96487.50
2023-01-23T03:29:49.562Z,96487.81
2023-01-23T03:32:17.683Z,96480.38
2023-01-23T03:34:48.878Z,96474.25
2023-01-23T03:37:17.522Z,96476.19
2023-01-23T03:40:02.473Z,96464.28
2023-01-23T03:42:30.176Z,96478.00
2023-01-23T03:44:57.847Z,96478.50
2023-01-23T03:47:26.329Z,96477.03
2023-01-23T03:49:55.402Z,96482.97
2023-01-23T03:52:23.180Z,96477.69
2023-01-23T03:54:50.945Z,96481.16
2023-01-23T03:57:19.878Z,96488.25
2023-01-23T03:59:47.569Z,96479.13
2023-01-23T04:02:15.360Z,96479.78
2023-01-23T04:04:43.075Z,96488.41
2023-01-23T04:07:12.137Z,96493.69
2023-01-23T04:09:39.907Z,96490.06
2023-01-23T04:12:07.653Z,96497.66
2023-01-23T04:14:37.673Z,96500.16
2023-01-23T04:17:06.582Z,96494.50
2023-01-23T04:19:35.720Z,96493.81
2023-01-23T04:22:06.106Z,96495.31
2023-01-23T04:24:35.225Z,96499.28
2023-01-23T04:27:03.056Z,96498.72
2023-01-23T04:29:30.778Z,96500.72
2023-01-23T04:31:58.598Z,96506.84
2023-01-23T04:34:26.421Z,96502.03
2023-01-23T04:36:54.203Z,96497.41
2023-01-23T04:39:21.887Z,96492.59
2023-01-23T04:41:50.999Z,96495.56
2023-01-23T04:44:21.649Z,96490.59
2023-01-23T04:46:50.250Z,96492.75
2023-01-23T04:49:18.688Z,96490.59
2023-01-23T04:51:48.086Z,96494.56
2023-01-23T04:54:15.922Z,96491.91
2023-01-23T04:56:43.840Z,96493.72
2023-01-23T04:59:13.232Z,96488.13
2023-01-23T05:01:40.944Z,96495.19
2023-01-23T05:04:08.693Z,96496.84
2023-01-23T05:06:39.631Z,96499.50
2023-01-23T05:09:07.429Z,96495.50
2023-01-23T05:11:35.150Z,96495.16
2023-01-23T05:14:03.046Z,96496.47
2023-01-23T05:16:32.197Z,96497.97
2023-01-23T05:18:59.884Z,96497.41
2023-01-23T05:21:27.675Z,96501.06
2023-01-23T05:23:55.378Z,96502.72
2023-01-23T05:26:23.066Z,96508.03
2023-01-23T05:28:50.804Z,96522.28
2023-01-23T05:31:18.572Z,96531.06
2023-01-23T05:33:47.729Z,96531.22
2023-01-23T05:36:17.658Z,96527.09
2023-01-23T05:38:46.210Z,96531.06
2023-01-23T05:41:13.948Z,96528.75
2023-01-23T05:43:41.681Z,96524.75
2023-01-23T05:46:09.374Z,96532.06
2023-01-23T05:48:37.044Z,96522.91
2023-01-23T05:51:06.536Z,96527.00
2023-01-23T05:53:34.240Z,96527.16
2023-01-23T05:56:06.621Z,96528.50
2023-01-23T05:58:34.538Z,96517.22
2023-01-23T06:01:03.544Z,96518.03
2023-01-23T06:03:31.409Z,96519.53
2023-01-23T06:06:01.260Z,96517.53
2023-01-23T06:08:30.381Z,96518.84
2023-01-23T06:10:59.580Z,96523.31
2023-01-23T06:13:28.018Z,96522.31
2023-01-23T06:15:56.500Z,96535.03
2023-01-23T06:18:25.337Z,96535.69
2023-01-23T06:20:58.924Z,96544.16
2023-01-23T06:23:26.683Z,96543.47
2023-01-23T06:25:55.771Z,96538.66
2023-01-23T06:28:23.412Z,96545.31
2023-01-23T06:30:51.154Z,96546.78
2023-01-23T06:33:18.890Z,96544.16
2023-01-23T06:35:46.598Z,96535.19
2023-01-23T06:38:14.257Z,96526.88
2023-01-23T06:40:41.969Z,96522.03
2023-01-23T06:43:11.004Z,96534.59
2023-01-23T06:45:38.704Z,96531.91
2023-01-23T06:48:06.791Z,96523.22
2023-01-23T06:50:34.468Z,96518.38
2023-01-23T06:53:02.119Z,96528.41
2023-01-23T06:55:29.795Z,96533.34
2023-01-23T06:57:57.591Z,96538.13
2023-01-23T07:00:28.101Z,96528.81
2023-01-23T07:02:59.002Z,96548.50
2023-01-23T07:05:26.727Z,96542.84
2023-01-23T07:07:54.378Z,96537.00
2023-01-23T07:10:23.042Z,96545.75
2023-01-23T07:12:51.328Z,96548.78
2023-01-23T07:15:19.136Z,96551.28
2023-01-23T07:17:48.318Z,96550.16
2023-01-23T07:20:16.180Z,96552.00
2023-01-23T07:22:43.860Z,96555.44
2023-01-23T07:25:11.561Z,96569.38
2023-01-23T07:27:39.240Z,96572.28
2023-01-23T07:30:07.980Z,96570.28
2023-01-23T07:32:35.820Z,96569.09
2023-01-23T07:35:05.624Z,96567.25
2023-01-23T07:37:33.503Z,96564.44
2023-01-23T07:40:01.234Z,96566.38
2023-01-23T07:42:28.899Z,96555.56
2023-01-23T07:44:56.558Z,96551.66
2023-01-23T07:47:24.189Z,96548.00
2023-01-23T07:49:51.871Z,96565.72
2023-01-23T07:52:20.981Z,96575.19
2023-01-23T07:54:48.653Z,96567.03
2023-01-23T07:57:16.497Z,96564.72
2023-01-23T07:59:44.207Z,96576.25
2023-01-23T08:02:12.180Z,96579.13
2023-01-23T08:04:39.901Z,96585.91
2023-01-23T08:07:07.753Z,96581.88
2023-01-23T08:09:36.899Z,96573.25
2023-01-23T08:12:04.987Z,96571.22
2023-01-23T08:14:32.922Z,96567.00
2023-01-23T08:17:01.593Z,96566.91
2023-01-23T08:19:29.441Z,96576.13
2023-01-23T08:21:57.170Z,96564.69
2023-01-23T08:24:24.886Z,96560.84
2023-01-23T08:26:55.145Z,96565.25
2023-01-23T08:29:22.962Z,96561.47
2023-01-23T08:31:51.710Z,96562.13
2023-01-23T08:34:19.527Z,96570.28
2023-01-23T08:36:47.175Z,96591.41
2023-01-23T08:39:14.841Z,96583.41
2023-01-23T08:41:42.536Z,96572.41
2023-01-23T08:44:13.087Z,96578.56
2023-01-23T08:46:40.753Z,96561.72
2023-01-23T08:49:10.398Z,96561.25
2023-01-23T08:51:39.063Z,96570.06
2023-01-23T08:54:07.056Z,96576.88
2023-01-23T08:56:34.853Z,96575.50
2023-01-23T08:59:02.557Z,96581.34
2023-01-23T09:01:31.605Z,96581.16
2023-01-23T09:04:01.074Z,96574.63
2023-01-23T09:06:30.410Z,96580.13
2023-01-23T09:08:58.116Z,96583.59
2023-01-23T09:11:25.946Z,96576.91
2023-01-23T09:13:54.125Z,96569.75
2023-01-23T09:16:22.099Z,96580.22
2023-01-23T09:18:51.269Z,96585.56
2023-01-23T09:21:19.296Z,96580.22
2023-01-23T09:23:47.393Z,96581.19
2023-01-23T09:26:17.223Z,96575.28
2023-01-23T09:28:46.527Z,96566.44
2023-01-23T09:31:15.029Z,96566.72
2023-01-23T09:33:43.122Z,96562.00
2023-01-23T09:36:12.538Z,96568.44
2023-01-23T09:38:40.608Z,96558.53
2023-01-23T09:41:11.745Z,96557.13
2023-01-23T09:43:45.927Z,96565.50
2023-01-23T09:46:19.865Z,96570.50
2023-01-23T09:48:49.472Z,96577.63
2023-01-23T09:51:25.570Z,96578.47
2023-01-23T09:53:55.875Z,96574.97
2023-01-23T09:56:30.990Z,96578.47
2023-01-23T09:59:07.409Z,96581.19
2023-01-23T10:01:35.517Z,96579.16
2023-01-23T10:04:04.915Z,96565.16
2023-01-23T10:06:50.217Z,96555.88
2023-01-23T10:09:32.603Z,96547.94
2023-01-23T10:12:10.813Z,96555.59
2023-01-23T10:14:59.463Z,96548.00
2023-01-23T10:17:34.242Z,96547.94
2023-01-23T10:20:18.633Z,96551.16
2023-01-23T10:22:58.493Z,96544.38
2023-01-23T10:25:29.254Z,96540.13
2023-01-23T10:28:01.649Z,96531.91
2023-01-23T10:30:33.392Z,96542.22
2023-01-23T10:33:12.784Z,96537.72
2023-01-23T10:35:50.622Z,96538.03
2023-01-23T10:38:27.701Z,96536.19
2023-01-23T10:41:09.394Z,96533.72
2023-01-23T10:43:37.403Z,96534.38
2023-01-23T10:46:12.356Z,96528.84
2023-01-23T10:48:46.048Z,96531.16
2023-01-23T10:51:44.723Z,96525.06
2023-01-23T10:54:30.741Z,96514.25
2023-01-23T10:57:02.006Z,96508.31
2023-01-23T10:59:34.020Z,96513.91
2023-01-23T11:02:10.040Z,96499.75
2023-01-23T11:04:37.879Z,96494.41
2023-01-23T11:07:10.497Z,96497.50
2023-01-23T11:09:55.133Z,96490.88
2023-01-23T11:12:24.690Z,96490.47
2023-01-23T11:14:53.423Z,96493.19
2023-01-23T11:17:24.185Z,96481.66
2023-01-23T11:19:54.500Z,96485.56
2023-01-23T11:22:32.220Z,96485.59
2023-01-23T11:25:01.398Z,96477.16
2023-01-23T11:27:31.104Z,96476.16
2023-01-23T11:30:23.647Z,96478.78
2023-01-23T11:32:58.408Z,96478.38
2023-01-23T11:35:39.300Z,96474.66
2023-01-23T11:38:07.448Z,96469.97
2023-01-23T11:40:37.475Z,96470.56
2023-01-23T11:43:10.958Z,96468.91
2023-01-23T11:45:49.370Z,96469.69
2023-01-23T11:48:37.045Z,96467.25
2023-01-23T11:51:12.450Z,96477.91
2023-01-23T11:53:45.138Z,96473.13
2023-01-23T11:56:44.824Z,96478.03
2023-01-23T11:59:32.579Z,96463.25
2023-01-23T12:02:19.428Z,96453.41
2023-01-23T12:05:15.992Z,96442.50
2023-01-23T12:07:55.119Z,96449.13
2023-01-23T12:10:29.523Z,96446.88
2023-01-23T12:13:25.236Z,96442.34
2023-01-23T12:16:04.564Z,96453.28
2023-01-23T12:18:42.822Z,96450.81
2023-01-23T12:21:18.513Z,96441.38
2023-01-23T12:24:00.407Z,96442.63
2023-01-23T12:26:30.626Z,96424.75
2023-01-23T12:29:27.070Z,96429.69
2023-01-23T12:32:07.585Z,96428.22
2023-01-23T12:34:56.494Z,96425.56
2023-01-23T12:37:41.815Z,96425.38
2023-01-23T12:40:14.540Z,96412.00
2023-01-23T12:42:49.701Z,96416.53
2023-01-23T12:45:23.499Z,96413.25
2023-01-23T12:47:59.776Z,96411.78
2023-01-23T12:50:36.393Z,96412.81
2023-01-23T12:53:08.132Z,96420.84
2023-01-23T12:55:40.119Z,96421.06
2023-01-23T12:58:13.625Z,96420.03
2023-01-23T13:00:53.724Z,96418.16
2023-01-23T13:03:45.956Z,96412.81
2023-01-23T13:06:37.784Z,96419.59
2023-01-23T13:09:18.333Z,96420.19
2023-01-23T13:11:57.051Z,96423.25
2023-01-23T13:15:00.669Z,96429.84
2023-01-23T13:17:38.184Z,96433.34
2023-01-23T13:20:38.465Z,96426.56
2023-01-23T13:23:29.164Z,96419.59
2023-01-23T13:26:28.829Z,96426.13
2023-01-23T13:28:58.595Z,96423.47
2023-01-23T13:31:33.889Z,96427.16
2023-01-23T13:34:15.338Z,96438.47
2023-01-23T13:36:44.244Z,96435.59
2023-01-23T13:39:24.092Z,96437.84
2023-01-23T13:42:13.719Z,96431.66
2023-01-23T13:45:14.856Z,96430.03
2023-01-23T14:22:40.588Z,96429.81
2023-01-23T14:25:18.466Z,96425.28
2023-01-23T14:27:53.685Z,96421.59
2023-01-23T14:30:26.684Z,96420.78
2023-01-23T14:32:54.785Z,96426.13
2023-01-23T14:35:29.707Z,96420.16
2023-01-23T14:38:00.911Z,96420.97
2023-01-23T14:40:40.098Z,96416.25
2023-01-23T14:43:21.481Z,96416.66
2023-01-23T14:45:53.530Z,96423.44
2023-01-23T14:48:22.283Z,96423.06
2023-01-23T14:50:50.060Z,96430.66
2023-01-23T14:53:18.376Z,96424.91
2023-01-23T14:55:49.728Z,96422.22
2023-01-23T14:58:22.317Z,96420.16
2023-01-23T15:00:51.531Z,96422.63
2023-01-23T15:03:41.563Z,96419.72
2023-01-23T15:06:15.957Z,96427.75
2023-01-23T15:08:44.866Z,96419.72
2023-01-23T15:11:14.619Z,96420.56
2023-01-23T15:13:47.062Z,96418.94
2023-01-23T15:16:18.941Z,96427.16
2023-01-23T15:18:54.309Z,96426.72
2023-01-23T15:21:43.046Z,96432.06
2023-01-23T15:24:28.283Z,96432.06
2023-01-23T15:27:07.606Z,96432.25
2023-01-23T15:29:36.414Z,96435.13
2023-01-23T15:32:04.339Z,96436.59
2023-01-23T15:34:34.376Z,96439.25
2023-01-23T15:37:06.965Z,96436.16
2023-01-23T15:39:39.127Z,96435.53
2023-01-23T15:42:26.800Z,96431.84
2023-01-23T15:44:54.967Z,96438.81
2023-01-23T15:47:22.752Z,96442.31
2023-01-23T15:49:50.554Z,96447.84
2023-01-23T15:52:21.454Z,96449.28
2023-01-23T15:54:51.136Z,96449.69
2023-01-23T15:57:20.430Z,96451.75
2023-01-23T15:59:48.150Z,96448.44
2023-01-23T16:02:30.052Z,96454.22
2023-01-23T16:04:58.683Z,96453.00
2023-01-23T16:07:31.262Z,96448.88
2023-01-23T16:09:59.015Z,96460.59
2023-01-23T16:12:29.742Z,96468.78
2023-01-23T16:14:57.845Z,96463.25
2023-01-23T16:17:25.590Z,96472.50
2023-01-23T16:19:54.346Z,96471.47
2023-01-23T16:22:27.129Z,96469.22
2023-01-23T16:24:55.151Z,96474.19
2023-01-23T16:27:27.365Z,96470.88
2023-01-23T16:29:57.070Z,96485.25
2023-01-23T16:32:25.475Z,96480.31
2023-01-23T16:34:53.255Z,96481.94
2023-01-23T16:37:21.132Z,96472.72
2023-01-23T16:39:48.886Z,96475.16
2023-01-23T16:42:20.430Z,96466.13
2023-01-23T16:44:48.161Z,96479.91
2023-01-23T16:47:19.150Z,96474.13
2023-01-23T16:49:52.043Z,96470.84
2023-01-23T16:52:22.650Z,96479.47
2023-01-23T16:54:53.400Z,96487.28
2023-01-23T16:57:22.088Z,96470.63
2023-01-23T16:59:50.894Z,96475.97
2023-01-23T17:02:23.056Z,96488.50
2023-01-23T17:04:51.073Z,96487.47
2023-01-23T17:07:19.710Z,96486.47
2023-01-23T17:09:49.178Z,96487.28
2023-01-23T17:12:20.873Z,96480.94
2023-01-23T17:14:52.404Z,96490.97
2023-01-23T17:17:27.735Z,96497.34
2023-01-23T17:19:55.556Z,96490.78
2023-01-23T17:22:27.179Z,96493.06
2023-01-23T17:24:54.918Z,96492.44
2023-01-23T17:27:22.737Z,96496.94
2023-01-23T17:29:50.891Z,96493.25
2023-01-23T17:32:29.387Z,96492.81
2023-01-23T17:34:58.035Z,96489.31
2023-01-23T17:37:26.001Z,96490.16
2023-01-23T17:39:55.218Z,96478.66
2023-01-23T17:42:23.121Z,96483.34
2023-01-23T17:44:50.862Z,96482.72
2023-01-23T17:47:18.999Z,96493.41
2023-01-23T17:49:54.389Z,96490.78
2023-01-23T17:52:22.705Z,96493.84
2023-01-23T17:54:50.729Z,96495.50
2023-01-23T17:57:18.430Z,96489.13
2023-01-23T17:59:46.255Z,96496.75
2023-01-23T18:02:26.514Z,96488.13
2023-01-23T18:04:55.732Z,96491.00
2023-01-23T18:07:23.767Z,96491.81
2023-01-23T18:09:52.526Z,96491.81
2023-01-23T18:12:29.447Z,96496.94
2023-01-23T18:15:05.389Z,96491.19
2023-01-23T18:17:40.994Z,96499.44
2023-01-23T18:20:19.574Z,96495.09
2023-01-23T18:22:48.137Z,96502.09
2023-01-23T18:25:17.474Z,96494.09
2023-01-23T18:27:50.122Z,96498.19
2023-01-23T18:30:34.299Z,96509.28
2023-01-23T18:33:13.814Z,96503.94
2023-01-23T18:36:03.650Z,96509.09
2023-01-23T18:38:43.145Z,96501.47
2023-01-23T18:41:21.969Z,96504.97
2023-01-23T18:43:53.042Z,96509.88
2023-01-23T18:46:23.966Z,96512.97
2023-01-23T18:48:52.147Z,96513.81
2023-01-23T18:51:32.814Z,96520.16
2023-01-23T18:54:09.833Z,96519.91
2023-01-23T18:56:48.707Z,96529.81
2023-01-23T18:59:23.874Z,96521.81
2023-01-23T19:01:54.921Z,96525.91
2023-01-23T19:04:34.404Z,96530.84
2023-01-23T19:07:04.707Z,96517.28
2023-01-23T19:09:35.139Z,96519.34
2023-01-23T19:12:24.912Z,96527.34
2023-01-23T19:15:11.818Z,96535.34
2023-01-23T19:17:47.370Z,96529.59
2023-01-23T19:20:26.946Z,96542.94
2023-01-23T19:23:03.061Z,96545.81
2023-01-23T19:25:31.164Z,96540.06
2023-01-23T19:28:01.429Z,96541.72
2023-01-23T19:30:29.899Z,96545.03
2023-01-23T19:32:58.190Z,96553.41
2023-01-23T19:35:25.973Z,96553.88
2023-01-23T19:37:53.710Z,96557.56
2023-01-23T19:40:22.991Z,96556.34
2023-01-23T19:43:05.651Z,96560.84
2023-01-23T19:45:41.083Z,96563.53
2023-01-23T19:48:10.736Z,96568.06
2023-01-23T19:50:38.640Z,96556.09
2023-01-23T19:53:06.718Z,96561.69
2023-01-23T19:55:38.289Z,96565.19
2023-01-23T19:58:07.132Z,96565.38
2023-01-23T20:00:36.182Z,96569.69
2023-01-23T20:03:04.992Z,96568.25
2023-01-23T20:05:33.185Z,96563.94
2023-01-23T20:08:09.127Z,96570.72
2023-01-23T20:10:39.454Z,96571.31
2023-01-23T20:13:08.734Z,96582.28
2023-01-23T20:15:36.542Z,96576.91
2023-01-23T20:18:04.509Z,96575.25
2023-01-23T20:20:32.331Z,96580.19
2023-01-23T20:23:00.147Z,96583.69
2023-01-23T20:25:27.871Z,96589.66
2023-01-23T20:27:56.998Z,96585.59
2023-01-23T20:30:25.023Z,96567.28
2023-01-23T20:32:52.924Z,96580.44
2023-01-23T20:35:20.688Z,96596.03
2023-01-23T20:37:48.506Z,96592.91
2023-01-23T20:40:16.738Z,96592.72
2023-01-23T20:42:44.461Z,96588.59
2023-01-23T20:45:13.584Z,96595.78
2023-01-23T20:47:41.345Z,96600.09
2023-01-23T20:50:10.256Z,96585.50
2023-01-23T20:52:55.621Z,96597.44
2023-01-23T20:55:23.616Z,96590.88
2023-01-23T20:58:09.293Z,96595.59
2023-01-23T21:00:38.425Z,96593.78
2023-01-23T21:03:06.209Z,96595.59
2023-01-23T21:05:33.936Z,96600.53
2023-01-23T21:08:01.741Z,96603.28
2023-01-23T21:10:29.513Z,96611.44
2023-01-23T21:12:57.239Z,96609.19
2023-01-23T21:15:25.007Z,96610.22
2023-01-23T21:17:54.078Z,96603.03
2023-01-23T21:20:21.827Z,96602.59
2023-01-23T21:22:49.534Z,96599.91
2023-01-23T21:25:17.353Z,96603.66
2023-01-23T21:27:46.331Z,96602.84
2023-01-23T21:30:14.647Z,96604.25
2023-01-23T21:32:42.496Z,96608.94
2023-01-23T21:35:11.749Z,96602.59
2023-01-23T21:37:39.515Z,96618.16
2023-01-23T21:40:08.900Z,96615.50
2023-01-23T21:42:36.614Z,96614.91
2023-01-23T21:45:04.634Z,96618.03
2023-01-23T21:47:32.348Z,96616.97
2023-01-23T21:50:00.037Z,96623.31
2023-01-23T21:52:30.282Z,96624.78
2023-01-23T21:54:58.028Z,96622.13
2023-01-23T21:57:25.903Z,96623.13
2023-01-23T22:00:07.479Z,96631.38
2023-01-23T22:02:35.194Z,96615.13
2023-01-23T22:05:02.955Z,96614.91
2023-01-23T22:07:32.100Z,96616.78
2023-01-23T22:09:59.852Z,96620.06
2023-01-23T22:12:28.825Z,96626.50
2023-01-23T22:14:56.691Z,96620.72
2023-01-23T22:17:24.542Z,96620.25
2023-01-23T22:19:52.263Z,96626.81
2023-01-23T22:22:20.693Z,96625.59
2023-01-23T22:24:49.704Z,96621.34
2023-01-23T22:27:17.411Z,96623.97
2023-01-23T22:29:45.138Z,96623.97
2023-01-23T22:32:12.944Z,96619.63
2023-01-23T22:34:42.750Z,96626.19
2023-01-23T22:37:10.497Z,96631.34
2023-01-23T22:39:38.230Z,96627.66
2023-01-23T22:42:07.385Z,96633.00
2023-01-23T22:44:35.400Z,96629.75
2023-01-23T22:47:03.150Z,96629.75
2023-01-23T22:49:32.007Z,96640.63
2023-01-23T22:52:04.200Z,96635.03
2023-01-23T22:54:31.921Z,96636.88
2023-01-23T23:01:49.787Z,96634.63
2023-01-23T23:04:17.447Z,96637.50
2023-01-23T23:06:45.111Z,96629.50
2023-01-23T23:09:12.926Z,96634.19
2023-01-23T23:11:41.270Z,96630.91
2023-01-23T23:14:11.015Z,96641.84
2023-01-23T23:16:38.739Z,96630.31
2023-01-23T23:19:12.139Z,96634.84
2023-01-23T23:21:40.271Z,96631.19
2023-01-23T23:24:09.589Z,96643.47
2023-01-23T23:26:37.558Z,96635.72
2023-01-23T23:29:06.081Z,96634.50
2023-01-23T23:31:34.382Z,96629.78
2023-01-23T23:34:02.483Z,96631.59
2023-01-23T23:36:31.591Z,96629.34
2023-01-23T23:38:59.269Z,96629.75
2023-01-23T23:41:27.000Z,96628.91
2023-01-23T23:43:54.655Z,96621.91
2023-01-23T23:46:22.305Z,96626.63
2023-01-23T23:48:49.945Z,96623.56
2023-01-23T23:51:19.637Z,96617.78
2023-01-23T23:53:48.686Z,96626.63
2023-01-23T23:56:21.407Z,96622.13
2023-01-23T23:58:49.124Z,96626.81
